sensor_id;sensor_type;location;lat;lon;timestamp;temperature;humidity
17621;DHT22;8929;51.008;6.804;2023-03-07T00:01:29;4.80;85.40
17621;DHT22;8929;51.008;6.804;2023-03-07T00:03:55;4.80;90.80
17621;DHT22;8929;51.008;6.804;2023-03-07T00:06:20;4.80;91.60
17621;DHT22;8929;51.008;6.804;2023-03-07T00:08:49;4.70;89.10
17621;DHT22;8929;51.008;6.804;2023-03-07T00:11:15;4.70;94.20
17621;DHT22;8929;51.008;6.804;2023-03-07T00:13:40;4.70;97.60
17621;DHT22;8929;51.008;6.804;2023-03-07T00:16:07;4.80;98.40
17621;DHT22;8929;51.008;6.804;2023-03-07T00:18:33;4.70;94.20
17621;DHT22;8929;51.008;6.804;2023-03-07T00:20:59;4.80;81.90
17621;DHT22;8929;51.008;6.804;2023-03-07T00:23:25;4.80;78.30
17621;DHT22;8929;51.008;6.804;2023-03-07T00:26:04;4.80;80.90
17621;DHT22;8929;51.008;6.804;2023-03-07T00:28:30;4.80;81.10
17621;DHT22;8929;51.008;6.804;2023-03-07T00:30:59;4.80;66.60
17621;DHT22;8929;51.008;6.804;2023-03-07T00:33:24;4.80;67.90
17621;DHT22;8929;51.008;6.804;2023-03-07T00:35:54;4.70;66.40
17621;DHT22;8929;51.008;6.804;2023-03-07T00:38:19;4.80;72.50
17621;DHT22;8929;51.008;6.804;2023-03-07T00:40:45;4.80;72.80
17621;DHT22;8929;51.008;6.804;2023-03-07T00:43:10;4.80;64.40
17621;DHT22;8929;51.008;6.804;2023-03-07T00:45:36;4.80;59.50
17621;DHT22;8929;51.008;6.804;2023-03-07T00:48:01;4.80;72.20
17621;DHT22;8929;51.008;6.804;2023-03-07T00:50:27;4.80;77.90
17621;DHT22;8929;51.008;6.804;2023-03-07T00:52:52;4.90;74.20
17621;DHT22;8929;51.008;6.804;2023-03-07T00:55:18;4.80;66.30
17621;DHT22;8929;51.008;6.804;2023-03-07T00:57:44;4.90;59.60
17621;DHT22;8929;51.008;6.804;2023-03-07T01:00:10;4.90;59.00
17621;DHT22;8929;51.008;6.804;2023-03-07T01:02:35;4.90;65.30
17621;DHT22;8929;51.008;6.804;2023-03-07T01:05:01;4.90;63.10
17621;DHT22;8929;51.008;6.804;2023-03-07T01:07:26;4.90;64.40
17621;DHT22;8929;51.008;6.804;2023-03-07T01:09:52;4.80;61.50
17621;DHT22;8929;51.008;6.804;2023-03-07T01:12:17;4.80;65.60
17621;DHT22;8929;51.008;6.804;2023-03-07T01:14:43;4.80;71.50
17621;DHT22;8929;51.008;6.804;2023-03-07T01:17:08;4.80;82.60
17621;DHT22;8929;51.008;6.804;2023-03-07T01:19:34;4.80;91.80
17621;DHT22;8929;51.008;6.804;2023-03-07T01:21:59;4.80;93.70
17621;DHT22;8929;51.008;6.804;2023-03-07T01:24:25;4.70;95.00
17621;DHT22;8929;51.008;6.804;2023-03-07T01:26:50;4.80;99.80
17621;DHT22;8929;51.008;6.804;2023-03-07T01:29:16;4.80;98.00
17621;DHT22;8929;51.008;6.804;2023-03-07T01:31:41;4.80;96.40
17621;DHT22;8929;51.008;6.804;2023-03-07T01:34:07;4.70;99.90
17621;DHT22;8929;51.008;6.804;2023-03-07T01:36:33;4.60;97.90
17621;DHT22;8929;51.008;6.804;2023-03-07T01:39:00;4.70;99.90
17621;DHT22;8929;51.008;6.804;2023-03-07T01:41:27;4.60;99.90
17621;DHT22;8929;51.008;6.804;2023-03-07T01:43:56;4.70;99.90
17621;DHT22;8929;51.008;6.804;2023-03-07T01:46:31;4.70;99.90
17621;DHT22;8929;51.008;6.804;2023-03-07T01:49:09;4.70;99.90
17621;DHT22;8929;51.008;6.804;2023-03-07T01:51:36;4.70;99.90
17621;DHT22;8929;51.008;6.804;2023-03-07T01:54:02;4.70;99.90
17621;DHT22;8929;51.008;6.804;2023-03-07T01:56:29;4.70;99.90
17621;DHT22;8929;51.008;6.804;2023-03-07T01:58:54;4.60;99.90
17621;DHT22;8929;51.008;6.804;2023-03-07T02:01:20;4.70;99.90
17621;DHT22;8929;51.008;6.804;2023-03-07T02:03:48;4.70;99.90
17621;DHT22;8929;51.008;6.804;2023-03-07T02:06:15;4.70;99.90
17621;DHT22;8929;51.008;6.804;2023-03-07T02:08:41;4.70;99.90
17621;DHT22;8929;51.008;6.804;2023-03-07T02:11:07;4.60;99.90
17621;DHT22;8929;51.008;6.804;2023-03-07T02:13:33;4.60;99.90
17621;DHT22;8929;51.008;6.804;2023-03-07T02:15:59;4.70;99.90
17621;DHT22;8929;51.008;6.804;2023-03-07T02:18:27;4.70;99.90
17621;DHT22;8929;51.008;6.804;2023-03-07T02:26:06;4.60;99.90
17621;DHT22;8929;51.008;6.804;2023-03-07T02:28:35;4.70;99.90
17621;DHT22;8929;51.008;6.804;2023-03-07T02:31:03;4.60;99.90
17621;DHT22;8929;51.008;6.804;2023-03-07T02:33:28;4.60;99.90
17621;DHT22;8929;51.008;6.804;2023-03-07T02:35:55;4.60;99.90
17621;DHT22;8929;51.008;6.804;2023-03-07T02:38:21;4.60;99.90
17621;DHT22;8929;51.008;6.804;2023-03-07T02:40:47;4.70;99.90
17621;DHT22;8929;51.008;6.804;2023-03-07T02:43:13;4.60;99.90
17621;DHT22;8929;51.008;6.804;2023-03-07T02:45:38;4.70;99.90
17621;DHT22;8929;51.008;6.804;2023-03-07T02:48:04;4.70;99.90
17621;DHT22;8929;51.008;6.804;2023-03-07T02:50:29;4.80;99.90
17621;DHT22;8929;51.008;6.804;2023-03-07T02:52:55;4.80;99.90
17621;DHT22;8929;51.008;6.804;2023-03-07T02:55:21;4.80;99.90
17621;DHT22;8929;51.008;6.804;2023-03-07T02:57:47;4.80;99.90
17621;DHT22;8929;51.008;6.804;2023-03-07T03:00:12;4.80;99.90
17621;DHT22;8929;51.008;6.804;2023-03-07T03:02:38;4.80;99.90
17621;DHT22;8929;51.008;6.804;2023-03-07T03:05:05;4.80;99.90
17621;DHT22;8929;51.008;6.804;2023-03-07T03:07:30;4.80;99.90
17621;DHT22;8929;51.008;6.804;2023-03-07T03:09:56;4.80;99.90
17621;DHT22;8929;51.008;6.804;2023-03-07T03:12:22;4.80;99.90
17621;DHT22;8929;51.008;6.804;2023-03-07T03:14:47;4.80;99.90
17621;DHT22;8929;51.008;6.804;2023-03-07T03:17:13;4.80;99.90
17621;DHT22;8929;51.008;6.804;2023-03-07T03:19:38;4.80;99.90
17621;DHT22;8929;51.008;6.804;2023-03-07T03:22:04;4.80;99.90
17621;DHT22;8929;51.008;6.804;2023-03-07T03:24:29;4.80;99.90
17621;DHT22;8929;51.008;6.804;2023-03-07T03:26:55;4.80;99.90
17621;DHT22;8929;51.008;6.804;2023-03-07T03:29:22;4.80;99.90
17621;DHT22;8929;51.008;6.804;2023-03-07T03:31:47;4.80;99.90
17621;DHT22;8929;51.008;6.804;2023-03-07T03:34:13;4.80;99.90
17621;DHT22;8929;51.008;6.804;2023-03-07T03:36:38;4.70;99.90
17621;DHT22;8929;51.008;6.804;2023-03-07T03:39:03;4.70;99.90
17621;DHT22;8929;51.008;6.804;2023-03-07T03:41:31;4.70;99.90
17621;DHT22;8929;51.008;6.804;2023-03-07T03:43:57;4.70;99.90
17621;DHT22;8929;51.008;6.804;2023-03-07T03:46:22;4.70;99.90
17621;DHT22;8929;51.008;6.804;2023-03-07T03:48:51;4.60;99.90
17621;DHT22;8929;51.008;6.804;2023-03-07T03:51:20;4.70;99.90
17621;DHT22;8929;51.008;6.804;2023-03-07T03:53:46;4.60;99.90
17621;DHT22;8929;51.008;6.804;2023-03-07T03:56:12;4.70;99.90
17621;DHT22;8929;51.008;6.804;2023-03-07T03:58:38;4.70;99.90
17621;DHT22;8929;51.008;6.804;2023-03-07T04:01:05;4.70;99.90
17621;DHT22;8929;51.008;6.804;2023-03-07T04:03:36;4.70;99.90
17621;DHT22;8929;51.008;6.804;2023-03-07T04:06:02;4.70;99.90
17621;DHT22;8929;51.008;6.804;2023-03-07T04:08:29;4.70;99.90
17621;DHT22;8929;51.008;6.804;2023-03-07T04:10:54;4.70;99.90
17621;DHT22;8929;51.008;6.804;2023-03-07T04:13:20;4.70;99.90
17621;DHT22;8929;51.008;6.804;2023-03-07T04:15:45;4.70;99.90
17621;DHT22;8929;51.008;6.804;2023-03-07T04:18:11;4.70;99.90
17621;DHT22;8929;51.008;6.804;2023-03-07T04:20:36;4.70;99.90
17621;DHT22;8929;51.008;6.804;2023-03-07T04:23:02;4.70;99.90
17621;DHT22;8929;51.008;6.804;2023-03-07T04:25:27;4.70;99.90
17621;DHT22;8929;51.008;6.804;2023-03-07T04:27:52;4.70;99.90
17621;DHT22;8929;51.008;6.804;2023-03-07T04:30:18;4.70;99.90
17621;DHT22;8929;51.008;6.804;2023-03-07T04:32:44;4.70;99.90
17621;DHT22;8929;51.008;6.804;2023-03-07T04:35:09;4.70;99.90
17621;DHT22;8929;51.008;6.804;2023-03-07T04:37:35;4.70;99.90
17621;DHT22;8929;51.008;6.804;2023-03-07T04:40:00;4.60;99.90
17621;DHT22;8929;51.008;6.804;2023-03-07T04:42:26;4.70;99.90
17621;DHT22;8929;51.008;6.804;2023-03-07T04:44:51;4.70;99.90
17621;DHT22;8929;51.008;6.804;2023-03-07T04:47:17;4.70;99.90
17621;DHT22;8929;51.008;6.804;2023-03-07T04:49:42;4.70;99.90
17621;DHT22;8929;51.008;6.804;2023-03-07T04:52:07;4.70;99.90
17621;DHT22;8929;51.008;6.804;2023-03-07T04:54:33;4.70;99.90
17621;DHT22;8929;51.008;6.804;2023-03-07T04:56:58;4.70;99.90
17621;DHT22;8929;51.008;6.804;2023-03-07T04:59:24;4.70;99.90
17621;DHT22;8929;51.008;6.804;2023-03-07T05:01:49;4.70;99.90
17621;DHT22;8929;51.008;6.804;2023-03-07T05:04:15;4.70;99.90
17621;DHT22;8929;51.008;6.804;2023-03-07T05:06:40;4.70;99.90
17621;DHT22;8929;51.008;6.804;2023-03-07T05:09:06;4.70;99.90
17621;DHT22;8929;51.008;6.804;2023-03-07T05:11:31;4.70;99.90
17621;DHT22;8929;51.008;6.804;2023-03-07T05:13:57;4.70;99.90
17621;DHT22;8929;51.008;6.804;2023-03-07T05:16:22;4.70;99.90
17621;DHT22;8929;51.008;6.804;2023-03-07T05:18:48;4.70;99.90
17621;DHT22;8929;51.008;6.804;2023-03-07T05:21:13;4.60;99.90
17621;DHT22;8929;51.008;6.804;2023-03-07T05:23:39;4.60;99.90
17621;DHT22;8929;51.008;6.804;2023-03-07T05:26:04;4.70;99.90
17621;DHT22;8929;51.008;6.804;2023-03-07T05:28:30;4.70;99.90
17621;DHT22;8929;51.008;6.804;2023-03-07T05:30:55;4.70;99.90
17621;DHT22;8929;51.008;6.804;2023-03-07T05:33:20;4.70;99.90
17621;DHT22;8929;51.008;6.804;2023-03-07T05:35:46;4.70;99.90
17621;DHT22;8929;51.008;6.804;2023-03-07T05:38:12;4.70;99.90
17621;DHT22;8929;51.008;6.804;2023-03-07T05:40:38;4.70;99.90
17621;DHT22;8929;51.008;6.804;2023-03-07T05:43:04;4.70;99.90
17621;DHT22;8929;51.008;6.804;2023-03-07T05:45:29;4.70;99.90
17621;DHT22;8929;51.008;6.804;2023-03-07T05:47:55;4.60;99.90
17621;DHT22;8929;51.008;6.804;2023-03-07T05:50:21;4.60;99.90
17621;DHT22;8929;51.008;6.804;2023-03-07T05:52:46;4.60;99.90
17621;DHT22;8929;51.008;6.804;2023-03-07T05:55:12;4.60;99.90
17621;DHT22;8929;51.008;6.804;2023-03-07T05:57:37;4.60;99.90
17621;DHT22;8929;51.008;6.804;2023-03-07T06:00:03;4.70;99.90
17621;DHT22;8929;51.008;6.804;2023-03-07T06:02:30;4.70;99.90
17621;DHT22;8929;51.008;6.804;2023-03-07T06:04:55;4.70;99.90
17621;DHT22;8929;51.008;6.804;2023-03-07T06:07:21;4.70;99.90
17621;DHT22;8929;51.008;6.804;2023-03-07T06:09:46;4.70;99.90
17621;DHT22;8929;51.008;6.804;2023-03-07T06:12:12;4.70;99.90
17621;DHT22;8929;51.008;6.804;2023-03-07T06:14:37;4.60;99.90
17621;DHT22;8929;51.008;6.804;2023-03-07T06:17:03;4.60;99.90
17621;DHT22;8929;51.008;6.804;2023-03-07T06:19:29;4.60;99.90
17621;DHT22;8929;51.008;6.804;2023-03-07T06:21:55;4.60;99.90
17621;DHT22;8929;51.008;6.804;2023-03-07T06:24:20;4.70;99.90
17621;DHT22;8929;51.008;6.804;2023-03-07T06:26:46;4.70;99.90
17621;DHT22;8929;51.008;6.804;2023-03-07T06:29:11;4.70;99.90
17621;DHT22;8929;51.008;6.804;2023-03-07T06:31:37;4.80;99.90
17621;DHT22;8929;51.008;6.804;2023-03-07T06:34:02;4.70;99.90
17621;DHT22;8929;51.008;6.804;2023-03-07T06:36:28;4.70;99.90
17621;DHT22;8929;51.008;6.804;2023-03-07T06:38:53;4.70;99.90
17621;DHT22;8929;51.008;6.804;2023-03-07T06:41:19;4.70;99.90
17621;DHT22;8929;51.008;6.804;2023-03-07T06:43:44;4.70;99.90
17621;DHT22;8929;51.008;6.804;2023-03-07T06:46:10;4.70;99.90
17621;DHT22;8929;51.008;6.804;2023-03-07T06:48:35;4.80;99.90
17621;DHT22;8929;51.008;6.804;2023-03-07T06:51:05;4.80;99.90
17621;DHT22;8929;51.008;6.804;2023-03-07T06:53:30;4.80;99.90
17621;DHT22;8929;51.008;6.804;2023-03-07T06:55:56;4.70;99.90
17621;DHT22;8929;51.008;6.804;2023-03-07T06:58:21;4.70;99.90
17621;DHT22;8929;51.008;6.804;2023-03-07T07:00:47;4.80;99.90
17621;DHT22;8929;51.008;6.804;2023-03-07T07:03:13;4.80;99.90
17621;DHT22;8929;51.008;6.804;2023-03-07T07:05:38;4.80;99.90
17621;DHT22;8929;51.008;6.804;2023-03-07T07:08:04;4.90;99.90
17621;DHT22;8929;51.008;6.804;2023-03-07T07:10:29;4.90;99.90
17621;DHT22;8929;51.008;6.804;2023-03-07T07:12:55;4.90;99.90
17621;DHT22;8929;51.008;6.804;2023-03-07T07:15:21;4.90;99.90
17621;DHT22;8929;51.008;6.804;2023-03-07T07:17:47;5.00;99.90
17621;DHT22;8929;51.008;6.804;2023-03-07T07:20:12;5.10;99.90
17621;DHT22;8929;51.008;6.804;2023-03-07T07:22:38;5.10;99.90
17621;DHT22;8929;51.008;6.804;2023-03-07T07:25:03;5.20;99.90
17621;DHT22;8929;51.008;6.804;2023-03-07T07:27:29;5.20;99.90
17621;DHT22;8929;51.008;6.804;2023-03-07T07:29:54;5.30;99.90
17621;DHT22;8929;51.008;6.804;2023-03-07T07:32:20;5.40;99.90
17621;DHT22;8929;51.008;6.804;2023-03-07T07:34:45;5.40;99.90
17621;DHT22;8929;51.008;6.804;2023-03-07T07:37:11;5.50;98.10
17621;DHT22;8929;51.008;6.804;2023-03-07T07:39:37;5.50;81.70
17621;DHT22;8929;51.008;6.804;2023-03-07T07:42:05;5.60;93.40
17621;DHT22;8929;51.008;6.804;2023-03-07T07:44:30;5.60;80.00
17621;DHT22;8929;51.008;6.804;2023-03-07T07:46:56;5.70;65.00
17621;DHT22;8929;51.008;6.804;2023-03-07T07:49:21;5.70;77.20
17621;DHT22;8929;51.008;6.804;2023-03-07T07:51:47;5.60;61.40
17621;DHT22;8929;51.008;6.804;2023-03-07T07:54:12;5.60;78.10
17621;DHT22;8929;51.008;6.804;2023-03-07T07:56:38;5.50;60.60
17621;DHT22;8929;51.008;6.804;2023-03-07T07:59:04;5.60;82.50
17621;DHT22;8929;51.008;6.804;2023-03-07T08:01:29;5.50;64.90
17621;DHT22;8929;51.008;6.804;2023-03-07T08:03:55;5.50;80.60
17621;DHT22;8929;51.008;6.804;2023-03-07T08:06:21;5.60;71.50
17621;DHT22;8929;51.008;6.804;2023-03-07T08:08:47;5.50;50.40
17621;DHT22;8929;51.008;6.804;2023-03-07T08:11:14;5.50;72.80
17621;DHT22;8929;51.008;6.804;2023-03-07T08:13:39;5.50;75.60
17621;DHT22;8929;51.008;6.804;2023-03-07T08:16:11;5.50;67.30
17621;DHT22;8929;51.008;6.804;2023-03-07T08:18:37;5.50;58.90
17621;DHT22;8929;51.008;6.804;2023-03-07T08:21:03;5.60;68.00
17621;DHT22;8929;51.008;6.804;2023-03-07T08:23:28;5.60;52.70
17621;DHT22;8929;51.008;6.804;2023-03-07T08:25:54;5.70;51.60
17621;DHT22;8929;51.008;6.804;2023-03-07T08:28:19;5.80;43.50
17621;DHT22;8929;51.008;6.804;2023-03-07T08:30:45;5.80;48.80
17621;DHT22;8929;51.008;6.804;2023-03-07T08:33:10;5.90;40.70
17621;DHT22;8929;51.008;6.804;2023-03-07T08:35:36;5.90;39.40
17621;DHT22;8929;51.008;6.804;2023-03-07T08:38:01;6.00;43.00
17621;DHT22;8929;51.008;6.804;2023-03-07T08:40:27;6.10;29.30
17621;DHT22;8929;51.008;6.804;2023-03-07T08:42:53;6.10;17.30
17621;DHT22;8929;51.008;6.804;2023-03-07T08:45:22;6.00;20.10
17621;DHT22;8929;51.008;6.804;2023-03-07T08:47:50;6.00;23.50
17621;DHT22;8929;51.008;6.804;2023-03-07T08:50:16;6.00;25.60
17621;DHT22;8929;51.008;6.804;2023-03-07T08:52:41;6.10;23.40
17621;DHT22;8929;51.008;6.804;2023-03-07T08:55:07;6.10;23.80
17621;DHT22;8929;51.008;6.804;2023-03-07T08:57:33;6.30;26.00
17621;DHT22;8929;51.008;6.804;2023-03-07T08:59:58;6.30;20.70
17621;DHT22;8929;51.008;6.804;2023-03-07T09:02:24;6.40;19.50
17621;DHT22;8929;51.008;6.804;2023-03-07T09:04:49;6.30;22.80
17621;DHT22;8929;51.008;6.804;2023-03-07T09:07:15;6.20;36.60
17621;DHT22;8929;51.008;6.804;2023-03-07T09:09:40;6.10;28.50
17621;DHT22;8929;51.008;6.804;2023-03-07T09:12:06;6.00;38.40
17621;DHT22;8929;51.008;6.804;2023-03-07T09:14:31;5.90;57.70
17621;DHT22;8929;51.008;6.804;2023-03-07T09:16:57;5.90;68.50
17621;DHT22;8929;51.008;6.804;2023-03-07T09:19:22;6.00;99.00
17621;DHT22;8929;51.008;6.804;2023-03-07T09:21:48;5.90;94.20
17621;DHT22;8929;51.008;6.804;2023-03-07T09:24:14;5.90;99.70
17621;DHT22;8929;51.008;6.804;2023-03-07T09:26:39;6.00;99.90
17621;DHT22;8929;51.008;6.804;2023-03-07T09:29:05;6.10;99.90
17621;DHT22;8929;51.008;6.804;2023-03-07T09:31:30;6.20;99.90
17621;DHT22;8929;51.008;6.804;2023-03-07T09:33:56;6.20;97.80
17621;DHT22;8929;51.008;6.804;2023-03-07T09:42:19;6.40;59.00
17621;DHT22;8929;51.008;6.804;2023-03-07T09:56:31;6.90;15.40
17621;DHT22;8929;51.008;6.804;2023-03-07T09:59:08;7.00;7.20
17621;DHT22;8929;51.008;6.804;2023-03-07T10:01:47;7.20;23.00
17621;DHT22;8929;51.008;6.804;2023-03-07T10:04:16;7.20;3.40
17621;DHT22;8929;51.008;6.804;2023-03-07T10:06:45;7.20;9.30
17621;DHT22;8929;51.008;6.804;2023-03-07T10:09:16;7.10;10.50
17621;DHT22;8929;51.008;6.804;2023-03-07T10:11:47;7.10;28.60
17621;DHT22;8929;51.008;6.804;2023-03-07T10:14:34;7.00;34.80
17621;DHT22;8929;51.008;6.804;2023-03-07T10:27:36;6.90;55.20
17621;DHT22;8929;51.008;6.804;2023-03-07T10:30:07;6.90;94.00
17621;DHT22;8929;51.008;6.804;2023-03-07T10:37:58;6.70;86.20
17621;DHT22;8929;51.008;6.804;2023-03-07T10:42:51;6.40;86.40
17621;DHT22;8929;51.008;6.804;2023-03-07T10:45:17;6.50;99.90
17621;DHT22;8929;51.008;6.804;2023-03-07T10:47:43;6.50;98.80
17621;DHT22;8929;51.008;6.804;2023-03-07T10:52:35;6.70;99.90
17621;DHT22;8929;51.008;6.804;2023-03-07T10:57:47;6.70;93.30
17621;DHT22;8929;51.008;6.804;2023-03-07T11:00:15;6.60;99.90
17621;DHT22;8929;51.008;6.804;2023-03-07T11:02:42;6.60;99.90
17621;DHT22;8929;51.008;6.804;2023-03-07T11:05:18;6.60;99.90
17621;DHT22;8929;51.008;6.804;2023-03-07T11:07:45;6.60;99.90
17621;DHT22;8929;51.008;6.804;2023-03-07T11:10:30;6.50;99.90
17621;DHT22;8929;51.008;6.804;2023-03-07T11:12:57;6.50;99.90
17621;DHT22;8929;51.008;6.804;2023-03-07T11:15:22;6.30;99.90
17621;DHT22;8929;51.008;6.804;2023-03-07T11:17:49;6.30;99.90
17621;DHT22;8929;51.008;6.804;2023-03-07T11:20:25;6.10;99.90
17621;DHT22;8929;51.008;6.804;2023-03-07T11:25:34;6.00;99.90
17621;DHT22;8929;51.008;6.804;2023-03-07T11:27:59;5.90;99.90
17621;DHT22;8929;51.008;6.804;2023-03-07T11:30:29;5.80;99.90
17621;DHT22;8929;51.008;6.804;2023-03-07T11:33:43;5.80;99.90
17621;DHT22;8929;51.008;6.804;2023-03-07T11:41:39;5.40;99.90
17621;DHT22;8929;51.008;6.804;2023-03-07T11:55:56;5.40;99.90
17621;DHT22;8929;51.008;6.804;2023-03-07T12:12:04;5.20;95.80
17621;DHT22;8929;51.008;6.804;2023-03-07T12:18:01;5.00;84.50
17621;DHT22;8929;51.008;6.804;2023-03-07T12:27:42;5.10;99.60
17621;DHT22;8929;51.008;6.804;2023-03-07T12:30:14;5.20;99.90
17621;DHT22;8929;51.008;6.804;2023-03-07T12:32:40;5.00;89.40
17621;DHT22;8929;51.008;6.804;2023-03-07T12:40:39;5.00;97.50
17621;DHT22;8929;51.008;6.804;2023-03-07T12:43:22;5.10;97.40
17621;DHT22;8929;51.008;6.804;2023-03-07T12:45:50;5.10;92.70
17621;DHT22;8929;51.008;6.804;2023-03-07T12:48:27;4.90;58.90
17621;DHT22;8929;51.008;6.804;2023-03-07T12:50:57;4.70;74.50
17621;DHT22;8929;51.008;6.804;2023-03-07T12:58:37;5.10;99.90
17621;DHT22;8929;51.008;6.804;2023-03-07T13:01:12;5.10;91.60
17621;DHT22;8929;51.008;6.804;2023-03-07T13:06:22;5.30;95.90
17621;DHT22;8929;51.008;6.804;2023-03-07T13:08:49;5.20;76.30
17621;DHT22;8929;51.008;6.804;2023-03-07T13:11:16;5.20;62.50
17621;DHT22;8929;51.008;6.804;2023-03-07T13:16:10;5.40;57.60
17621;DHT22;8929;51.008;6.804;2023-03-07T13:18:35;5.30;50.60
17621;DHT22;8929;51.008;6.804;2023-03-07T13:21:08;5.30;54.60
17621;DHT22;8929;51.008;6.804;2023-03-07T13:23:34;5.30;53.70
17621;DHT22;8929;51.008;6.804;2023-03-07T13:26:00;5.40;56.50
17621;DHT22;8929;51.008;6.804;2023-03-07T13:28:30;5.40;56.50
17621;DHT22;8929;51.008;6.804;2023-03-07T13:31:10;5.50;61.70
17621;DHT22;8929;51.008;6.804;2023-03-07T13:33:36;5.50;50.30
17621;DHT22;8929;51.008;6.804;2023-03-07T13:36:01;5.50;48.60
17621;DHT22;8929;51.008;6.804;2023-03-07T13:43:34;5.30;35.40
17621;DHT22;8929;51.008;6.804;2023-03-07T13:46:00;5.30;44.60
17621;DHT22;8929;51.008;6.804;2023-03-07T13:56:16;5.00;65.50
17621;DHT22;8929;51.008;6.804;2023-03-07T14:01:18;5.10;62.70
17621;DHT22;8929;51.008;6.804;2023-03-07T14:03:46;4.90;48.20
17621;DHT22;8929;51.008;6.804;2023-03-07T14:08:42;4.80;40.30
17621;DHT22;8929;51.008;6.804;2023-03-07T14:11:13;4.80;47.90
17621;DHT22;8929;51.008;6.804;2023-03-07T14:18:44;4.70;53.90
17621;DHT22;8929;51.008;6.804;2023-03-07T14:24:19;4.60;51.80
17621;DHT22;8929;51.008;6.804;2023-03-07T14:26:57;4.60;58.40
17621;DHT22;8929;51.008;6.804;2023-03-07T14:29:24;4.50;56.90
17621;DHT22;8929;51.008;6.804;2023-03-07T14:31:53;4.50;54.50
17621;DHT22;8929;51.008;6.804;2023-03-07T14:34:25;4.40;42.50
17621;DHT22;8929;51.008;6.804;2023-03-07T14:36:55;4.30;42.50
17621;DHT22;8929;51.008;6.804;2023-03-07T14:39:22;4.20;48.70
17621;DHT22;8929;51.008;6.804;2023-03-07T14:50:18;4.00;59.90
17621;DHT22;8929;51.008;6.804;2023-03-07T14:52:44;3.90;65.90
17621;DHT22;8929;51.008;6.804;2023-03-07T14:55:18;3.90;68.30
17621;DHT22;8929;51.008;6.804;2023-03-07T14:57:44;3.90;70.70
17621;DHT22;8929;51.008;6.804;2023-03-07T15:00:21;3.90;59.40
17621;DHT22;8929;51.008;6.804;2023-03-07T15:02:51;3.80;56.60
17621;DHT22;8929;51.008;6.804;2023-03-07T15:08:16;3.60;80.40
17621;DHT22;8929;51.008;6.804;2023-03-07T15:10:42;3.60;87.20
17621;DHT22;8929;51.008;6.804;2023-03-07T15:13:51;3.70;88.90
17621;DHT22;8929;51.008;6.804;2023-03-07T15:15:58;3.60;83.60
17621;DHT22;8929;51.008;6.804;2023-03-07T15:18:28;3.60;73.90
17621;DHT22;8929;51.008;6.804;2023-03-07T15:20:55;3.50;82.80
17621;DHT22;8929;51.008;6.804;2023-03-07T15:23:23;3.50;90.20
17621;DHT22;8929;51.008;6.804;2023-03-07T15:25:50;3.50;88.80
17621;DHT22;8929;51.008;6.804;2023-03-07T15:28:17;3.40;92.10
17621;DHT22;8929;51.008;6.804;2023-03-07T15:30:47;3.40;90.00
17621;DHT22;8929;51.008;6.804;2023-03-07T15:35:42;3.40;91.90
17621;DHT22;8929;51.008;6.804;2023-03-07T15:38:15;3.40;92.50
17621;DHT22;8929;51.008;6.804;2023-03-07T15:40:43;3.40;97.10
17621;DHT22;8929;51.008;6.804;2023-03-07T15:45:39;3.40;96.20
17621;DHT22;8929;51.008;6.804;2023-03-07T15:50:40;3.40;97.60
17621;DHT22;8929;51.008;6.804;2023-03-07T15:53:06;3.30;99.90
17621;DHT22;8929;51.008;6.804;2023-03-07T15:55:32;3.20;99.90
17621;DHT22;8929;51.008;6.804;2023-03-07T15:58:02;3.30;99.10
17621;DHT22;8929;51.008;6.804;2023-03-07T16:00:36;3.20;99.90
17621;DHT22;8929;51.008;6.804;2023-03-07T16:05:41;3.10;99.90
17621;DHT22;8929;51.008;6.804;2023-03-07T16:08:11;3.10;99.90
17621;DHT22;8929;51.008;6.804;2023-03-07T16:10:37;3.00;99.90
17621;DHT22;8929;51.008;6.804;2023-03-07T16:13:04;3.00;99.90
17621;DHT22;8929;51.008;6.804;2023-03-07T16:15:30;3.00;99.90
17621;DHT22;8929;51.008;6.804;2023-03-07T16:17:55;2.90;99.90
17621;DHT22;8929;51.008;6.804;2023-03-07T16:20:22;2.90;99.90
17621;DHT22;8929;51.008;6.804;2023-03-07T16:22:48;2.90;99.90
17621;DHT22;8929;51.008;6.804;2023-03-07T16:25:14;2.80;99.90
17621;DHT22;8929;51.008;6.804;2023-03-07T16:27:40;2.70;99.90
17621;DHT22;8929;51.008;6.804;2023-03-07T16:30:11;2.80;99.90
17621;DHT22;8929;51.008;6.804;2023-03-07T16:32:37;2.80;99.90
17621;DHT22;8929;51.008;6.804;2023-03-07T16:35:08;2.80;99.90
17621;DHT22;8929;51.008;6.804;2023-03-07T16:37:36;2.80;99.90
17621;DHT22;8929;51.008;6.804;2023-03-07T16:40:01;2.70;99.90
17621;DHT22;8929;51.008;6.804;2023-03-07T16:42:27;2.70;99.90
17621;DHT22;8929;51.008;6.804;2023-03-07T16:44:52;2.70;99.90
17621;DHT22;8929;51.008;6.804;2023-03-07T16:47:18;2.60;99.90
17621;DHT22;8929;51.008;6.804;2023-03-07T16:49:43;2.70;99.90
17621;DHT22;8929;51.008;6.804;2023-03-07T16:52:11;2.70;99.90
17621;DHT22;8929;51.008;6.804;2023-03-07T16:54:37;2.60;99.90
17621;DHT22;8929;51.008;6.804;2023-03-07T16:57:02;2.60;99.90
17621;DHT22;8929;51.008;6.804;2023-03-07T16:59:32;2.60;99.90
17621;DHT22;8929;51.008;6.804;2023-03-07T17:02:01;2.60;99.90
17621;DHT22;8929;51.008;6.804;2023-03-07T17:04:34;2.60;99.90
17621;DHT22;8929;51.008;6.804;2023-03-07T17:07:01;2.70;99.90
17621;DHT22;8929;51.008;6.804;2023-03-07T17:09:27;2.70;99.90
17621;DHT22;8929;51.008;6.804;2023-03-07T17:11:53;2.80;99.90
17621;DHT22;8929;51.008;6.804;2023-03-07T17:14:18;2.80;99.90
17621;DHT22;8929;51.008;6.804;2023-03-07T17:16:48;2.80;99.90
17621;DHT22;8929;51.008;6.804;2023-03-07T17:19:22;2.80;99.90
17621;DHT22;8929;51.008;6.804;2023-03-07T17:21:48;2.80;99.90
17621;DHT22;8929;51.008;6.804;2023-03-07T17:24:13;2.90;99.90
17621;DHT22;8929;51.008;6.804;2023-03-07T17:26:39;2.90;99.90
17621;DHT22;8929;51.008;6.804;2023-03-07T17:29:09;2.90;99.90
17621;DHT22;8929;51.008;6.804;2023-03-07T17:31:36;2.90;99.90
17621;DHT22;8929;51.008;6.804;2023-03-07T17:34:01;3.00;99.90
17621;DHT22;8929;51.008;6.804;2023-03-07T17:36:27;3.00;99.90
17621;DHT22;8929;51.008;6.804;2023-03-07T17:38:52;3.00;99.90
17621;DHT22;8929;51.008;6.804;2023-03-07T17:41:17;3.00;99.90
17621;DHT22;8929;51.008;6.804;2023-03-07T17:43:43;3.00;99.90
17621;DHT22;8929;51.008;6.804;2023-03-07T17:46:09;3.00;99.90
17621;DHT22;8929;51.008;6.804;2023-03-07T17:48:35;3.00;99.90
17621;DHT22;8929;51.008;6.804;2023-03-07T17:51:05;3.10;99.90
17621;DHT22;8929;51.008;6.804;2023-03-07T17:53:33;3.10;99.90
17621;DHT22;8929;51.008;6.804;2023-03-07T17:56:04;3.10;99.90
17621;DHT22;8929;51.008;6.804;2023-03-07T17:58:30;3.20;99.90
17621;DHT22;8929;51.008;6.804;2023-03-07T18:00:56;3.20;99.90
17621;DHT22;8929;51.008;6.804;2023-03-07T18:03:21;3.20;99.90
17621;DHT22;8929;51.008;6.804;2023-03-07T18:05:47;3.20;99.90
17621;DHT22;8929;51.008;6.804;2023-03-07T20:35:59;2.60;99.90
17621;DHT22;8929;51.008;6.804;2023-03-07T20:38:35;2.60;99.90
17621;DHT22;8929;51.008;6.804;2023-03-07T20:41:08;2.60;99.90
17621;DHT22;8929;51.008;6.804;2023-03-07T20:43:37;2.60;99.90
17621;DHT22;8929;51.008;6.804;2023-03-07T20:46:08;2.60;99.90
17621;DHT22;8929;51.008;6.804;2023-03-07T20:48:48;2.50;99.90
17621;DHT22;8929;51.008;6.804;2023-03-07T20:51:24;2.50;99.90
17621;DHT22;8929;51.008;6.804;2023-03-07T20:57:57;2.40;99.90
